sensor_id;sensor_type;location;lat;lon;timestamp;P1;durP1;ratioP1;P2;durP2;ratioP2
18176;SDS011;9213;50.858;3.964;2023-05-16T00:01:07;11.20;;;2.63;;
18176;SDS011;9213;50.858;3.964;2023-05-16T00:03:34;15.27;;;3.10;;
18176;SDS011;9213;50.858;3.964;2023-05-16T00:06:02;19.10;;;2.87;;
18176;SDS011;9213;50.858;3.964;2023-05-16T00:08:29;19.03;;;3.40;;
18176;SDS011;9213;50.858;3.964;2023-05-16T00:10:56;9.20;;;2.40;;
18176;SDS011;9213;50.858;3.964;2023-05-16T00:13:24;15.33;;;3.43;;
18176;SDS011;9213;50.858;3.964;2023-05-16T00:15:52;19.00;;;3.77;;
18176;SDS011;9213;50.858;3.964;2023-05-16T00:18:20;15.70;;;3.00;;
18176;SDS011;9213;50.858;3.964;2023-05-16T00:20:47;15.17;;;2.70;;
18176;SDS011;9213;50.858;3.964;2023-05-16T00:23:16;16.40;;;3.50;;
18176;SDS011;9213;50.858;3.964;2023-05-16T00:25:42;10.10;;;2.90;;
18176;SDS011;9213;50.858;3.964;2023-05-16T00:28:11;15.40;;;3.27;;
18176;SDS011;9213;50.858;3.964;2023-05-16T00:30:40;17.53;;;4.37;;
18176;SDS011;9213;50.858;3.964;2023-05-16T00:33:07;17.73;;;3.63;;
18176;SDS011;9213;50.858;3.964;2023-05-16T00:35:34;17.47;;;3.27;;
18176;SDS011;9213;50.858;3.964;2023-05-16T00:38:01;17.10;;;3.40;;
18176;SDS011;9213;50.858;3.964;2023-05-16T00:40:27;13.70;;;3.20;;
18176;SDS011;9213;50.858;3.964;2023-05-16T00:42:54;11.60;;;3.03;;
18176;SDS011;9213;50.858;3.964;2023-05-16T00:45:21;11.00;;;3.20;;
18176;SDS011;9213;50.858;3.964;2023-05-16T00:47:50;9.13;;;3.23;;
18176;SDS011;9213;50.858;3.964;2023-05-16T00:50:17;18.03;;;4.00;;
18176;SDS011;9213;50.858;3.964;2023-05-16T00:52:44;20.13;;;4.03;;
18176;SDS011;9213;50.858;3.964;2023-05-16T00:55:12;17.07;;;3.23;;
18176;SDS011;9213;50.858;3.964;2023-05-16T00:57:39;14.10;;;3.10;;
18176;SDS011;9213;50.858;3.964;2023-05-16T01:00:07;11.43;;;2.70;;
18176;SDS011;9213;50.858;3.964;2023-05-16T01:02:34;11.83;;;3.37;;
18176;SDS011;9213;50.858;3.964;2023-05-16T01:05:04;9.57;;;3.00;;
18176;SDS011;9213;50.858;3.964;2023-05-16T01:07:32;15.33;;;3.30;;
18176;SDS011;9213;50.858;3.964;2023-05-16T01:09:59;15.17;;;3.47;;
18176;SDS011;9213;50.858;3.964;2023-05-16T01:12:28;15.60;;;3.00;;
18176;SDS011;9213;50.858;3.964;2023-05-16T01:15:04;8.37;;;2.70;;
18176;SDS011;9213;50.858;3.964;2023-05-16T01:17:35;13.80;;;3.17;;
18176;SDS011;9213;50.858;3.964;2023-05-16T01:20:12;9.77;;;3.20;;
18176;SDS011;9213;50.858;3.964;2023-05-16T01:22:46;14.70;;;3.80;;
18176;SDS011;9213;50.858;3.964;2023-05-16T01:25:30;10.47;;;2.83;;
18176;SDS011;9213;50.858;3.964;2023-05-16T01:28:05;16.27;;;3.40;;
18176;SDS011;9213;50.858;3.964;2023-05-16T01:30:34;16.80;;;3.30;;
18176;SDS011;9213;50.858;3.964;2023-05-16T01:33:04;12.17;;;3.47;;
18176;SDS011;9213;50.858;3.964;2023-05-16T01:35:30;11.53;;;3.40;;
18176;SDS011;9213;50.858;3.964;2023-05-16T01:38:00;8.50;;;3.30;;
18176;SDS011;9213;50.858;3.964;2023-05-16T01:40:35;11.57;;;3.43;;
18176;SDS011;9213;50.858;3.964;2023-05-16T01:43:07;19.57;;;3.40;;
18176;SDS011;9213;50.858;3.964;2023-05-16T01:45:40;12.57;;;3.60;;
18176;SDS011;9213;50.858;3.964;2023-05-16T01:48:14;15.27;;;4.37;;
18176;SDS011;9213;50.858;3.964;2023-05-16T01:50:49;18.93;;;4.63;;
18176;SDS011;9213;50.858;3.964;2023-05-16T01:53:21;18.27;;;5.50;;
18176;SDS011;9213;50.858;3.964;2023-05-16T01:55:54;21.07;;;6.37;;
18176;SDS011;9213;50.858;3.964;2023-05-16T01:58:25;22.30;;;7.23;;
18176;SDS011;9213;50.858;3.964;2023-05-16T02:00:58;22.17;;;6.33;;
18176;SDS011;9213;50.858;3.964;2023-05-16T02:03:27;20.53;;;6.87;;
18176;SDS011;9213;50.858;3.964;2023-05-16T02:05:54;19.53;;;6.10;;
18176;SDS011;9213;50.858;3.964;2023-05-16T02:08:21;23.97;;;6.77;;
18176;SDS011;9213;50.858;3.964;2023-05-16T02:10:49;22.90;;;6.80;;
18176;SDS011;9213;50.858;3.964;2023-05-16T02:13:16;16.57;;;6.40;;
18176;SDS011;9213;50.858;3.964;2023-05-16T02:15:44;20.40;;;7.83;;
18176;SDS011;9213;50.858;3.964;2023-05-16T02:18:11;22.33;;;6.93;;
18176;SDS011;9213;50.858;3.964;2023-05-16T02:20:38;17.23;;;6.10;;
18176;SDS011;9213;50.858;3.964;2023-05-16T02:23:05;25.10;;;6.57;;
18176;SDS011;9213;50.858;3.964;2023-05-16T02:25:32;20.80;;;6.23;;
18176;SDS011;9213;50.858;3.964;2023-05-16T02:27:59;23.20;;;6.53;;
18176;SDS011;9213;50.858;3.964;2023-05-16T02:30:26;16.97;;;6.00;;
18176;SDS011;9213;50.858;3.964;2023-05-16T02:32:54;15.07;;;6.43;;
18176;SDS011;9213;50.858;3.964;2023-05-16T02:35:21;15.97;;;6.40;;
18176;SDS011;9213;50.858;3.964;2023-05-16T02:37:48;19.70;;;6.40;;
18176;SDS011;9213;50.858;3.964;2023-05-16T02:40:15;17.13;;;6.07;;
18176;SDS011;9213;50.858;3.964;2023-05-16T02:42:42;20.97;;;7.40;;
18176;SDS011;9213;50.858;3.964;2023-05-16T02:45:09;19.73;;;8.00;;
18176;SDS011;9213;50.858;3.964;2023-05-16T02:47:36;18.00;;;7.23;;
18176;SDS011;9213;50.858;3.964;2023-05-16T02:50:05;27.13;;;8.07;;
18176;SDS011;9213;50.858;3.964;2023-05-16T02:52:32;21.57;;;7.90;;
18176;SDS011;9213;50.858;3.964;2023-05-16T02:54:59;23.43;;;7.77;;
18176;SDS011;9213;50.858;3.964;2023-05-16T02:57:26;22.67;;;7.83;;
18176;SDS011;9213;50.858;3.964;2023-05-16T02:59:53;22.70;;;7.90;;
18176;SDS011;9213;50.858;3.964;2023-05-16T03:02:20;23.83;;;8.67;;
18176;SDS011;9213;50.858;3.964;2023-05-16T03:04:47;18.53;;;7.60;;
18176;SDS011;9213;50.858;3.964;2023-05-16T03:07:15;18.50;;;8.07;;
18176;SDS011;9213;50.858;3.964;2023-05-16T03:09:42;30.37;;;8.37;;
18176;SDS011;9213;50.858;3.964;2023-05-16T03:12:09;23.23;;;7.87;;
18176;SDS011;9213;50.858;3.964;2023-05-16T03:14:36;25.00;;;8.30;;
18176;SDS011;9213;50.858;3.964;2023-05-16T03:17:03;28.53;;;8.30;;
18176;SDS011;9213;50.858;3.964;2023-05-16T03:19:30;30.63;;;7.83;;
18176;SDS011;9213;50.858;3.964;2023-05-16T03:21:57;26.87;;;9.00;;
18176;SDS011;9213;50.858;3.964;2023-05-16T03:24:25;22.83;;;8.07;;
18176;SDS011;9213;50.858;3.964;2023-05-16T03:26:52;27.03;;;8.80;;
18176;SDS011;9213;50.858;3.964;2023-05-16T03:29:19;23.53;;;8.93;;
18176;SDS011;9213;50.858;3.964;2023-05-16T03:31:46;24.27;;;9.57;;
18176;SDS011;9213;50.858;3.964;2023-05-16T03:34:13;28.23;;;9.33;;
18176;SDS011;9213;50.858;3.964;2023-05-16T03:36:40;29.23;;;10.50;;
18176;SDS011;9213;50.858;3.964;2023-05-16T03:39:07;26.50;;;9.63;;
18176;SDS011;9213;50.858;3.964;2023-05-16T03:41:35;28.60;;;10.17;;
18176;SDS011;9213;50.858;3.964;2023-05-16T03:44:02;27.00;;;9.83;;
18176;SDS011;9213;50.858;3.964;2023-05-16T03:46:29;24.53;;;9.63;;
18176;SDS011;9213;50.858;3.964;2023-05-16T03:48:56;27.90;;;9.23;;
18176;SDS011;9213;50.858;3.964;2023-05-16T03:51:23;29.00;;;9.23;;
18176;SDS011;9213;50.858;3.964;2023-05-16T03:53:50;23.57;;;7.93;;
18176;SDS011;9213;50.858;3.964;2023-05-16T03:56:17;19.30;;;7.73;;
18176;SDS011;9213;50.858;3.964;2023-05-16T03:58:47;19.57;;;7.97;;
18176;SDS011;9213;50.858;3.964;2023-05-16T04:01:14;23.20;;;6.90;;
18176;SDS011;9213;50.858;3.964;2023-05-16T04:03:40;23.00;;;7.73;;
18176;SDS011;9213;50.858;3.964;2023-05-16T04:06:07;18.37;;;7.67;;
18176;SDS011;9213;50.858;3.964;2023-05-16T04:08:34;18.20;;;7.47;;
18176;SDS011;9213;50.858;3.964;2023-05-16T04:11:03;22.23;;;7.50;;
18176;SDS011;9213;50.858;3.964;2023-05-16T04:13:30;18.37;;;7.80;;
18176;SDS011;9213;50.858;3.964;2023-05-16T04:15:58;18.57;;;7.90;;
18176;SDS011;9213;50.858;3.964;2023-05-16T04:18:25;16.90;;;7.60;;
18176;SDS011;9213;50.858;3.964;2023-05-16T04:20:52;18.50;;;8.10;;
18176;SDS011;9213;50.858;3.964;2023-05-16T04:23:19;22.73;;;8.03;;
18176;SDS011;9213;50.858;3.964;2023-05-16T04:25:46;27.33;;;9.00;;
18176;SDS011;9213;50.858;3.964;2023-05-16T04:28:12;22.47;;;8.23;;
18176;SDS011;9213;50.858;3.964;2023-05-16T04:30:39;21.30;;;9.43;;
18176;SDS011;9213;50.858;3.964;2023-05-16T04:33:08;19.67;;;7.90;;
18176;SDS011;9213;50.858;3.964;2023-05-16T04:35:35;22.33;;;9.20;;
18176;SDS011;9213;50.858;3.964;2023-05-16T04:38:02;23.80;;;8.77;;
18176;SDS011;9213;50.858;3.964;2023-05-16T04:40:29;19.97;;;7.50;;
18176;SDS011;9213;50.858;3.964;2023-05-16T04:42:57;20.83;;;7.57;;
18176;SDS011;9213;50.858;3.964;2023-05-16T04:45:24;18.37;;;7.60;;
18176;SDS011;9213;50.858;3.964;2023-05-16T04:47:51;17.83;;;7.23;;
18176;SDS011;9213;50.858;3.964;2023-05-16T04:50:19;20.20;;;6.90;;
18176;SDS011;9213;50.858;3.964;2023-05-16T04:52:46;18.43;;;5.63;;
18176;SDS011;9213;50.858;3.964;2023-05-16T04:55:12;14.93;;;5.27;;
18176;SDS011;9213;50.858;3.964;2023-05-16T04:57:40;19.43;;;5.83;;
18176;SDS011;9213;50.858;3.964;2023-05-16T05:00:07;15.87;;;5.37;;
18176;SDS011;9213;50.858;3.964;2023-05-16T05:02:36;14.77;;;5.37;;
18176;SDS011;9213;50.858;3.964;2023-05-16T05:05:03;14.60;;;5.30;;
18176;SDS011;9213;50.858;3.964;2023-05-16T05:07:32;14.20;;;5.37;;
18176;SDS011;9213;50.858;3.964;2023-05-16T05:09:59;15.23;;;5.80;;
18176;SDS011;9213;50.858;3.964;2023-05-16T05:12:26;16.80;;;5.67;;
18176;SDS011;9213;50.858;3.964;2023-05-16T05:14:53;14.93;;;5.87;;
18176;SDS011;9213;50.858;3.964;2023-05-16T05:17:21;17.27;;;6.13;;
18176;SDS011;9213;50.858;3.964;2023-05-16T05:19:48;17.93;;;5.97;;
18176;SDS011;9213;50.858;3.964;2023-05-16T05:22:15;19.70;;;6.43;;
18176;SDS011;9213;50.858;3.964;2023-05-16T05:24:43;13.50;;;6.37;;
18176;SDS011;9213;50.858;3.964;2023-05-16T05:27:10;13.47;;;6.00;;
18176;SDS011;9213;50.858;3.964;2023-05-16T05:29:37;23.73;;;6.87;;
18176;SDS011;9213;50.858;3.964;2023-05-16T05:32:04;22.53;;;6.00;;
18176;SDS011;9213;50.858;3.964;2023-05-16T05:34:31;13.27;;;5.40;;
18176;SDS011;9213;50.858;3.964;2023-05-16T05:36:58;16.17;;;6.13;;
18176;SDS011;9213;50.858;3.964;2023-05-16T05:39:25;20.67;;;6.03;;
18176;SDS011;9213;50.858;3.964;2023-05-16T05:41:53;15.17;;;6.83;;
18176;SDS011;9213;50.858;3.964;2023-05-16T05:44:20;13.80;;;6.00;;
18176;SDS011;9213;50.858;3.964;2023-05-16T05:46:47;12.93;;;6.07;;
18176;SDS011;9213;50.858;3.964;2023-05-16T05:49:14;16.50;;;6.27;;
18176;SDS011;9213;50.858;3.964;2023-05-16T05:51:41;15.80;;;6.03;;
18176;SDS011;9213;50.858;3.964;2023-05-16T05:54:08;20.63;;;6.50;;
18176;SDS011;9213;50.858;3.964;2023-05-16T05:56:35;16.13;;;6.43;;
18176;SDS011;9213;50.858;3.964;2023-05-16T05:59:03;15.20;;;6.73;;
18176;SDS011;9213;50.858;3.964;2023-05-16T06:01:30;20.87;;;7.63;;
18176;SDS011;9213;50.858;3.964;2023-05-16T06:03:57;16.27;;;7.37;;
18176;SDS011;9213;50.858;3.964;2023-05-16T06:06:24;18.07;;;6.90;;
18176;SDS011;9213;50.858;3.964;2023-05-16T06:08:51;16.53;;;6.67;;
18176;SDS011;9213;50.858;3.964;2023-05-16T06:11:18;17.80;;;7.73;;
18176;SDS011;9213;50.858;3.964;2023-05-16T06:13:45;18.57;;;7.17;;
18176;SDS011;9213;50.858;3.964;2023-05-16T06:16:13;17.43;;;7.70;;
18176;SDS011;9213;50.858;3.964;2023-05-16T06:18:40;15.87;;;7.63;;
18176;SDS011;9213;50.858;3.964;2023-05-16T06:21:07;19.97;;;6.07;;
18176;SDS011;9213;50.858;3.964;2023-05-16T06:23:34;18.77;;;5.97;;
18176;SDS011;9213;50.858;3.964;2023-05-16T06:26:02;20.47;;;6.23;;
18176;SDS011;9213;50.858;3.964;2023-05-16T06:28:29;22.10;;;7.87;;
18176;SDS011;9213;50.858;3.964;2023-05-16T06:30:56;16.73;;;7.17;;
18176;SDS011;9213;50.858;3.964;2023-05-16T06:33:24;21.13;;;7.60;;
18176;SDS011;9213;50.858;3.964;2023-05-16T06:35:51;20.10;;;8.60;;
18176;SDS011;9213;50.858;3.964;2023-05-16T06:38:18;17.93;;;7.40;;
18176;SDS011;9213;50.858;3.964;2023-05-16T06:40:45;18.33;;;6.53;;
18176;SDS011;9213;50.858;3.964;2023-05-16T06:43:12;14.13;;;6.30;;
18176;SDS011;9213;50.858;3.964;2023-05-16T06:45:39;13.27;;;5.90;;
18176;SDS011;9213;50.858;3.964;2023-05-16T06:48:06;9.83;;;4.37;;
18176;SDS011;9213;50.858;3.964;2023-05-16T06:50:34;12.87;;;4.37;;
18176;SDS011;9213;50.858;3.964;2023-05-16T06:53:01;16.47;;;5.80;;
18176;SDS011;9213;50.858;3.964;2023-05-16T06:55:29;10.97;;;3.87;;
18176;SDS011;9213;50.858;3.964;2023-05-16T06:57:56;13.27;;;5.10;;
18176;SDS011;9213;50.858;3.964;2023-05-16T07:00:23;14.43;;;4.60;;
18176;SDS011;9213;50.858;3.964;2023-05-16T07:02:51;7.23;;;3.30;;
18176;SDS011;9213;50.858;3.964;2023-05-16T07:05:17;12.87;;;3.97;;
18176;SDS011;9213;50.858;3.964;2023-05-16T07:07:46;14.43;;;3.70;;
18176;SDS011;9213;50.858;3.964;2023-05-16T07:10:13;10.10;;;3.40;;
18176;SDS011;9213;50.858;3.964;2023-05-16T07:12:41;10.87;;;2.80;;
18176;SDS011;9213;50.858;3.964;2023-05-16T07:15:08;8.43;;;2.90;;
18176;SDS011;9213;50.858;3.964;2023-05-16T07:17:36;7.43;;;2.13;;
18176;SDS011;9213;50.858;3.964;2023-05-16T07:20:03;5.70;;;2.20;;
18176;SDS011;9213;50.858;3.964;2023-05-16T07:22:31;5.43;;;1.57;;
18176;SDS011;9213;50.858;3.964;2023-05-16T07:24:59;7.97;;;1.90;;
18176;SDS011;9213;50.858;3.964;2023-05-16T07:27:26;5.37;;;1.80;;
18176;SDS011;9213;50.858;3.964;2023-05-16T07:29:53;6.00;;;1.70;;
18176;SDS011;9213;50.858;3.964;2023-05-16T07:32:20;7.33;;;2.13;;
18176;SDS011;9213;50.858;3.964;2023-05-16T07:34:47;7.67;;;1.87;;
18176;SDS011;9213;50.858;3.964;2023-05-16T07:37:14;5.60;;;1.83;;
18176;SDS011;9213;50.858;3.964;2023-05-16T07:39:41;7.07;;;1.97;;
18176;SDS011;9213;50.858;3.964;2023-05-16T07:42:09;5.93;;;1.70;;
18176;SDS011;9213;50.858;3.964;2023-05-16T07:44:36;8.00;;;2.00;;
18176;SDS011;9213;50.858;3.964;2023-05-16T07:47:03;6.60;;;1.80;;
18176;SDS011;9213;50.858;3.964;2023-05-16T07:49:30;7.13;;;1.87;;
18176;SDS011;9213;50.858;3.964;2023-05-16T07:51:57;6.77;;;1.70;;
18176;SDS011;9213;50.858;3.964;2023-05-16T07:54:24;5.17;;;1.50;;
18176;SDS011;9213;50.858;3.964;2023-05-16T07:56:51;6.77;;;1.90;;
18176;SDS011;9213;50.858;3.964;2023-05-16T07:59:20;5.10;;;1.57;;
18176;SDS011;9213;50.858;3.964;2023-05-16T08:01:46;7.60;;;1.70;;
18176;SDS011;9213;50.858;3.964;2023-05-16T08:04:13;6.53;;;1.30;;
18176;SDS011;9213;50.858;3.964;2023-05-16T08:06:40;4.30;;;1.40;;
18176;SDS011;9213;50.858;3.964;2023-05-16T08:09:07;4.90;;;1.60;;
18176;SDS011;9213;50.858;3.964;2023-05-16T08:11:35;4.80;;;1.70;;
18176;SDS011;9213;50.858;3.964;2023-05-16T08:14:03;4.37;;;1.60;;
18176;SDS011;9213;50.858;3.964;2023-05-16T08:16:32;3.47;;;1.53;;
18176;SDS011;9213;50.858;3.964;2023-05-16T08:18:59;6.23;;;1.57;;
18176;SDS011;9213;50.858;3.964;2023-05-16T08:21:26;7.15;;;2.10;;
18176;SDS011;9213;50.858;3.964;2023-05-16T08:23:53;4.88;;;1.50;;
18176;SDS011;9213;50.858;3.964;2023-05-16T08:26:20;4.15;;;1.13;;
18176;SDS011;9213;50.858;3.964;2023-05-16T08:28:47;5.43;;;2.03;;
18176;SDS011;9213;50.858;3.964;2023-05-16T08:31:14;5.37;;;1.83;;
18176;SDS011;9213;50.858;3.964;2023-05-16T08:33:42;6.87;;;1.50;;
18176;SDS011;9213;50.858;3.964;2023-05-16T08:36:09;5.47;;;1.47;;
18176;SDS011;9213;50.858;3.964;2023-05-16T08:38:36;5.27;;;1.67;;
18176;SDS011;9213;50.858;3.964;2023-05-16T08:41:03;5.47;;;1.90;;
18176;SDS011;9213;50.858;3.964;2023-05-16T08:43:31;4.53;;;1.50;;
18176;SDS011;9213;50.858;3.964;2023-05-16T08:45:59;7.13;;;1.63;;
18176;SDS011;9213;50.858;3.964;2023-05-16T08:48:26;4.87;;;1.57;;
18176;SDS011;9213;50.858;3.964;2023-05-16T08:50:55;8.10;;;1.57;;
18176;SDS011;9213;50.858;3.964;2023-05-16T08:53:25;6.57;;;1.67;;
18176;SDS011;9213;50.858;3.964;2023-05-16T08:55:56;5.93;;;2.27;;
18176;SDS011;9213;50.858;3.964;2023-05-16T08:58:24;3.50;;;1.50;;
18176;SDS011;9213;50.858;3.964;2023-05-16T09:00:52;7.07;;;1.57;;
18176;SDS011;9213;50.858;3.964;2023-05-16T09:03:20;6.73;;;1.60;;
18176;SDS011;9213;50.858;3.964;2023-05-16T09:05:49;5.77;;;1.17;;
18176;SDS011;9213;50.858;3.964;2023-05-16T09:08:18;6.40;;;1.40;;
18176;SDS011;9213;50.858;3.964;2023-05-16T09:10:45;6.03;;;1.60;;
18176;SDS011;9213;50.858;3.964;2023-05-16T09:13:12;3.55;;;1.20;;
18176;SDS011;9213;50.858;3.964;2023-05-16T09:15:39;5.43;;;1.48;;
18176;SDS011;9213;50.858;3.964;2023-05-16T09:18:10;6.47;;;1.30;;
18176;SDS011;9213;50.858;3.964;2023-05-16T09:20:42;5.57;;;1.50;;
18176;SDS011;9213;50.858;3.964;2023-05-16T09:23:11;6.18;;;1.70;;
18176;SDS011;9213;50.858;3.964;2023-05-16T09:25:40;5.90;;;1.33;;
18176;SDS011;9213;50.858;3.964;2023-05-16T09:28:09;4.35;;;1.80;;
18176;SDS011;9213;50.858;3.964;2023-05-16T09:30:37;2.00;;;1.20;;
18176;SDS011;9213;50.858;3.964;2023-05-16T09:33:06;4.07;;;1.20;;
18176;SDS011;9213;50.858;3.964;2023-05-16T09:35:33;2.13;;;1.23;;
18176;SDS011;9213;50.858;3.964;2023-05-16T09:38:00;2.07;;;1.07;;
18176;SDS011;9213;50.858;3.964;2023-05-16T09:40:26;5.13;;;1.30;;
18176;SDS011;9213;50.858;3.964;2023-05-16T09:43:02;3.73;;;1.30;;
18176;SDS011;9213;50.858;3.964;2023-05-16T09:45:29;6.47;;;1.60;;
18176;SDS011;9213;50.858;3.964;2023-05-16T09:48:00;3.25;;;1.30;;
18176;SDS011;9213;50.858;3.964;2023-05-16T09:50:30;3.55;;;1.42;;
18176;SDS011;9213;50.858;3.964;2023-05-16T09:52:58;5.50;;;1.30;;
18176;SDS011;9213;50.858;3.964;2023-05-16T09:55:25;4.03;;;1.45;;
18176;SDS011;9213;50.858;3.964;2023-05-16T09:57:52;6.22;;;1.38;;
18176;SDS011;9213;50.858;3.964;2023-05-16T10:00:21;5.40;;;1.50;;
18176;SDS011;9213;50.858;3.964;2023-05-16T10:02:47;4.53;;;1.55;;
18176;SDS011;9213;50.858;3.964;2023-05-16T10:05:16;5.00;;;1.77;;
18176;SDS011;9213;50.858;3.964;2023-05-16T10:07:42;5.95;;;1.60;;
18176;SDS011;9213;50.858;3.964;2023-05-16T10:10:10;6.20;;;1.98;;
18176;SDS011;9213;50.858;3.964;2023-05-16T10:12:39;4.93;;;1.45;;
18176;SDS011;9213;50.858;3.964;2023-05-16T10:15:07;3.80;;;1.30;;
18176;SDS011;9213;50.858;3.964;2023-05-16T10:17:37;6.13;;;1.70;;
18176;SDS011;9213;50.858;3.964;2023-05-16T10:20:06;6.13;;;1.65;;
18176;SDS011;9213;50.858;3.964;2023-05-16T10:22:38;5.97;;;1.38;;
18176;SDS011;9213;50.858;3.964;2023-05-16T10:25:10;4.82;;;1.67;;
18176;SDS011;9213;50.858;3.964;2023-05-16T10:27:42;6.07;;;2.00;;
18176;SDS011;9213;50.858;3.964;2023-05-16T10:30:11;4.40;;;1.48;;
18176;SDS011;9213;50.858;3.964;2023-05-16T10:32:42;2.38;;;1.20;;
18176;SDS011;9213;50.858;3.964;2023-05-16T10:35:11;4.78;;;1.40;;
18176;SDS011;9213;50.858;3.964;2023-05-16T10:37:38;3.17;;;1.50;;
18176;SDS011;9213;50.858;3.964;2023-05-16T10:40:07;5.65;;;1.42;;
18176;SDS011;9213;50.858;3.964;2023-05-16T10:42:35;4.03;;;1.38;;
18176;SDS011;9213;50.858;3.964;2023-05-16T10:45:08;3.70;;;1.50;;
18176;SDS011;9213;50.858;3.964;2023-05-16T10:47:50;4.32;;;1.40;;
18176;SDS011;9213;50.858;3.964;2023-05-16T10:53:18;3.47;;;1.90;;
18176;SDS011;9213;50.858;3.964;2023-05-16T10:55:49;6.18;;;1.55;;
18176;SDS011;9213;50.858;3.964;2023-05-16T10:58:39;4.15;;;1.63;;
18176;SDS011;9213;50.858;3.964;2023-05-16T11:01:19;5.20;;;1.60;;
18176;SDS011;9213;50.858;3.964;2023-05-16T11:04:02;4.60;;;1.60;;
18176;SDS011;9213;50.858;3.964;2023-05-16T11:06:33;2.33;;;1.55;;
18176;SDS011;9213;50.858;3.964;2023-05-16T11:09:16;8.35;;;1.58;;
18176;SDS011;9213;50.858;3.964;2023-05-16T11:11:46;4.18;;;1.40;;
18176;SDS011;9213;50.858;3.964;2023-05-16T11:14:19;3.08;;;1.20;;
18176;SDS011;9213;50.858;3.964;2023-05-16T11:16:47;4.20;;;1.50;;
18176;SDS011;9213;50.858;3.964;2023-05-16T11:19:28;4.05;;;1.42;;
18176;SDS011;9213;50.858;3.964;2023-05-16T11:22:03;5.18;;;1.30;;
18176;SDS011;9213;50.858;3.964;2023-05-16T11:24:34;3.00;;;1.27;;
18176;SDS011;9213;50.858;3.964;2023-05-16T11:27:02;3.72;;;1.38;;
18176;SDS011;9213;50.858;3.964;2023-05-16T11:29:30;2.75;;;1.35;;
18176;SDS011;9213;50.858;3.964;2023-05-16T11:31:58;3.47;;;1.30;;
18176;SDS011;9213;50.858;3.964;2023-05-16T11:34:25;4.13;;;1.13;;
18176;SDS011;9213;50.858;3.964;2023-05-16T11:36:53;1.90;;;1.10;;
18176;SDS011;9213;50.858;3.964;2023-05-16T11:39:21;3.58;;;1.25;;
18176;SDS011;9213;50.858;3.964;2023-05-16T11:41:49;4.10;;;1.50;;
18176;SDS011;9213;50.858;3.964;2023-05-16T11:44:16;5.70;;;2.00;;
18176;SDS011;9213;50.858;3.964;2023-05-16T11:46:42;5.88;;;1.50;;
18176;SDS011;9213;50.858;3.964;2023-05-16T11:49:10;4.88;;;1.38;;
18176;SDS011;9213;50.858;3.964;2023-05-16T11:51:37;4.10;;;1.38;;
18176;SDS011;9213;50.858;3.964;2023-05-16T11:54:06;5.70;;;1.80;;
18176;SDS011;9213;50.858;3.964;2023-05-16T11:56:35;4.82;;;1.48;;
18176;SDS011;9213;50.858;3.964;2023-05-16T11:59:02;4.45;;;1.35;;
18176;SDS011;9213;50.858;3.964;2023-05-16T12:01:32;5.75;;;1.50;;
18176;SDS011;9213;50.858;3.964;2023-05-16T12:04:01;4.72;;;1.35;;
18176;SDS011;9213;50.858;3.964;2023-05-16T12:06:32;2.80;;;1.20;;
18176;SDS011;9213;50.858;3.964;2023-05-16T12:08:59;5.20;;;1.42;;
18176;SDS011;9213;50.858;3.964;2023-05-16T12:11:32;2.80;;;1.30;;
18176;SDS011;9213;50.858;3.964;2023-05-16T12:13:59;3.63;;;1.10;;
18176;SDS011;9213;50.858;3.964;2023-05-16T12:16:26;3.10;;;1.25;;
18176;SDS011;9213;50.858;3.964;2023-05-16T12:18:53;2.47;;;1.00;;
18176;SDS011;9213;50.858;3.964;2023-05-16T12:21:20;3.13;;;1.33;;
18176;SDS011;9213;50.858;3.964;2023-05-16T12:23:47;4.65;;;1.38;;
18176;SDS011;9213;50.858;3.964;2023-05-16T12:26:15;4.15;;;1.20;;
18176;SDS011;9213;50.858;3.964;2023-05-16T12:28:53;3.85;;;0.88;;
18176;SDS011;9213;50.858;3.964;2023-05-16T12:31:24;4.55;;;1.23;;
18176;SDS011;9213;50.858;3.964;2023-05-16T12:33:51;4.40;;;1.10;;
18176;SDS011;9213;50.858;3.964;2023-05-16T12:36:19;2.78;;;1.30;;
18176;SDS011;9213;50.858;3.964;2023-05-16T12:38:46;5.88;;;1.85;;
18176;SDS011;9213;50.858;3.964;2023-05-16T12:41:16;3.42;;;1.20;;
18176;SDS011;9213;50.858;3.964;2023-05-16T12:43:44;3.42;;;1.48;;
18176;SDS011;9213;50.858;3.964;2023-05-16T12:46:12;5.82;;;2.00;;
18176;SDS011;9213;50.858;3.964;2023-05-16T12:48:39;1.85;;;1.52;;
18176;SDS011;9213;50.858;3.964;2023-05-16T12:51:09;3.17;;;1.40;;
18176;SDS011;9213;50.858;3.964;2023-05-16T12:53:41;2.67;;;1.30;;
18176;SDS011;9213;50.858;3.964;2023-05-16T12:56:09;5.22;;;2.50;;
18176;SDS011;9213;50.858;3.964;2023-05-16T12:58:36;5.75;;;1.80;;
18176;SDS011;9213;50.858;3.964;2023-05-16T13:01:03;5.13;;;2.00;;
18176;SDS011;9213;50.858;3.964;2023-05-16T13:03:32;5.20;;;2.05;;
18176;SDS011;9213;50.858;3.964;2023-05-16T13:06:00;6.57;;;2.30;;
18176;SDS011;9213;50.858;3.964;2023-05-16T13:08:28;5.95;;;2.10;;
18176;SDS011;9213;50.858;3.964;2023-05-16T13:10:55;4.95;;;2.50;;
18176;SDS011;9213;50.858;3.964;2023-05-16T13:13:22;5.13;;;2.47;;
18176;SDS011;9213;50.858;3.964;2023-05-16T13:15:49;6.70;;;2.70;;
18176;SDS011;9213;50.858;3.964;2023-05-16T13:18:16;3.97;;;2.28;;
18176;SDS011;9213;50.858;3.964;2023-05-16T13:20:44;3.65;;;2.33;;
18176;SDS011;9213;50.858;3.964;2023-05-16T13:23:11;2.90;;;2.15;;
18176;SDS011;9213;50.858;3.964;2023-05-16T13:25:38;7.05;;;2.53;;
18176;SDS011;9213;50.858;3.964;2023-05-16T13:28:05;4.20;;;1.48;;
18176;SDS011;9213;50.858;3.964;2023-05-16T13:30:32;7.75;;;2.40;;
18176;SDS011;9213;50.858;3.964;2023-05-16T13:32:59;6.35;;;2.28;;
18176;SDS011;9213;50.858;3.964;2023-05-16T13:35:26;5.00;;;2.50;;
18176;SDS011;9213;50.858;3.964;2023-05-16T13:37:54;5.57;;;3.50;;
18176;SDS011;9213;50.858;3.964;2023-05-16T13:40:21;6.93;;;2.50;;
18176;SDS011;9213;50.858;3.964;2023-05-16T13:42:48;6.75;;;3.05;;
18176;SDS011;9213;50.858;3.964;2023-05-16T13:45:15;4.93;;;2.88;;
18176;SDS011;9213;50.858;3.964;2023-05-16T13:47:42;6.03;;;2.90;;
18176;SDS011;9213;50.858;3.964;2023-05-16T13:50:09;7.68;;;3.60;;
18176;SDS011;9213;50.858;3.964;2023-05-16T13:52:36;4.97;;;3.97;;
18176;SDS011;9213;50.858;3.964;2023-05-16T13:55:05;8.05;;;4.03;;
18176;SDS011;9213;50.858;3.964;2023-05-16T13:57:33;6.53;;;3.58;;
18176;SDS011;9213;50.858;3.964;2023-05-16T14:00:00;5.63;;;4.13;;
18176;SDS011;9213;50.858;3.964;2023-05-16T14:02:30;8.85;;;3.63;;
18176;SDS011;9213;50.858;3.964;2023-05-16T14:04:57;6.45;;;3.40;;
18176;SDS011;9213;50.858;3.964;2023-05-16T14:07:24;3.70;;;2.80;;
18176;SDS011;9213;50.858;3.964;2023-05-16T14:09:51;5.47;;;3.22;;
18176;SDS011;9213;50.858;3.964;2023-05-16T14:12:19;5.75;;;2.95;;
18176;SDS011;9213;50.858;3.964;2023-05-16T14:14:46;5.45;;;3.10;;
18176;SDS011;9213;50.858;3.964;2023-05-16T14:17:13;7.97;;;2.67;;
18176;SDS011;9213;50.858;3.964;2023-05-16T14:19:40;6.97;;;2.85;;
18176;SDS011;9213;50.858;3.964;2023-05-16T14:22:07;7.50;;;3.03;;
18176;SDS011;9213;50.858;3.964;2023-05-16T14:24:33;4.40;;;2.28;;
18176;SDS011;9213;50.858;3.964;2023-05-16T14:27:00;8.85;;;3.08;;
18176;SDS011;9213;50.858;3.964;2023-05-16T14:29:29;5.80;;;1.92;;
18176;SDS011;9213;50.858;3.964;2023-05-16T14:31:56;6.25;;;2.42;;
18176;SDS011;9213;50.858;3.964;2023-05-16T14:34:22;4.80;;;2.40;;
18176;SDS011;9213;50.858;3.964;2023-05-16T14:36:49;4.55;;;1.88;;
18176;SDS011;9213;50.858;3.964;2023-05-16T14:39:16;5.28;;;2.55;;
18176;SDS011;9213;50.858;3.964;2023-05-16T14:41:43;5.65;;;2.42;;
18176;SDS011;9213;50.858;3.964;2023-05-16T14:44:10;4.25;;;2.17;;
18176;SDS011;9213;50.858;3.964;2023-05-16T14:46:39;5.85;;;2.17;;
18176;SDS011;9213;50.858;3.964;2023-05-16T14:49:06;5.80;;;2.05;;
18176;SDS011;9213;50.858;3.964;2023-05-16T14:51:33;5.07;;;2.10;;
18176;SDS011;9213;50.858;3.964;2023-05-16T14:54:00;4.82;;;1.80;;
18176;SDS011;9213;50.858;3.964;2023-05-16T14:56:27;5.32;;;2.17;;
18176;SDS011;9213;50.858;3.964;2023-05-16T14:58:54;5.10;;;2.25;;
18176;SDS011;9213;50.858;3.964;2023-05-16T15:01:21;3.95;;;2.47;;
18176;SDS011;9213;50.858;3.964;2023-05-16T15:03:49;3.83;;;2.33;;